Cape Cottage, Maine
Current Conditions -  °F | °C
As of 7:34 AM on Thursday 23 Oct 2014 (Local Time) from KPWM Reporting Station
Light Rain Light Rain  
Wind Chill: 50°   Ceiling: 1400
Heat Index: 50°   Visibility: 3mi
Dew Point: 47°   Wind: 24mph
Humidity: 89%   Direction: 30°NNE
Pressure: 29.77"   Gusts: 33mph
Location:  43.5903°N, 70.2379°W
Report Text: KPWM 231134Z 03021G29KT 3SM -RA BR OVC014 10/08 A2977 RMK AO2 PK WND 02030/1056 P0002 T01000083
Loading
Personal Weather Stations






























Interactive Weather Map
Tropical Storm Tracking
New forecast layout! Learn more

10-Day Weather Forecast

Advertisements
Track Severe Weather on mobile